Time;durP1;ratioP1;P1;durP2;ratioP2;P2;SDS_P1;SDS_P2;PMS_P1;PMS_P2;Temp;Humidity;BMP_temperature;BMP_pressure;BME280_temperature;BME280_humidity;BME280_pressure;Samples;Min_cycle;Max_cycle;Signal;HPM_P1;HPM_P2
2022/12/22 03:28:11;;;;;;;25.43;5.27;;;;;;;;;;5012695;28;20483;-62
2022/12/22 03:30:38;;;;;;;21.77;8.90;;;;;;;;;;5018357;28;20568;-61
2022/12/22 03:33:06;;;;;;;13.20;5.60;;;10.00;99.90;;;;;;5013837;28;20543;-62
2022/12/22 03:35:33;;;;;;;25.33;5.90;;;11.40;99.90;;;;;;5030300;28;21365;-62
2022/12/22 03:38:02;;;;;;;18.10;4.60;;;;;;;;;;5035842;28;20533;-61
2022/12/22 03:40:29;;;;;;;20.27;7.87;;;11.30;99.90;;;;;;5032876;28;20484;-61
2022/12/22 03:48:26;;;;;;;18.20;6.47;;;11.50;99.90;;;;;;5038685;28;20579;-62
2022/12/22 03:50:52;;;;;;;12.73;5.23;;;11.70;99.90;;;;;;5037101;28;21183;-61
2022/12/22 03:53:19;;;;;;;15.33;4.83;;;11.70;99.90;;;;;;5037553;28;20983;-62
2022/12/22 03:55:46;;;;;;;22.07;10.27;;;11.60;99.90;;;;;;5037801;28;20496;-62
2022/12/22 03:58:13;;;;;;;16.17;6.37;;;11.80;99.90;;;;;;5036204;28;20468;-61
2022/12/22 04:00:39;;;;;;;41.37;7.97;;;11.80;99.90;;;;;;5034002;28;21246;-60
2022/12/22 04:03:06;;;;;;;16.70;5.47;;;11.80;99.90;;;;;;5025244;28;21050;-61
2022/12/22 04:05:34;;;;;;;22.33;6.57;;;;;;;;;;5035025;28;21054;-61
2022/12/22 04:08:01;;;;;;;35.30;4.70;;;11.90;99.90;;;;;;5036241;28;20558;-61
2022/12/22 04:13:12;;;;;;;19.10;3.87;;;;;;;;;;5036120;28;21073;-62
2022/12/22 04:15:39;;;;;;;28.17;9.70;;;11.70;99.90;;;;;;5036386;28;20540;-62
2022/12/22 04:18:05;;;;;;;13.93;6.00;;;11.90;99.90;;;;;;5025384;28;20965;-61
2022/12/22 04:20:33;;;;;;;17.60;5.33;;;11.80;99.90;;;;;;5034665;28;20565;-62
2022/12/22 04:23:01;;;;;;;18.83;5.60;;;11.80;99.90;;;;;;5035640;28;20542;-62
2022/12/22 04:25:28;;;;;;;17.63;4.80;;;;;;;;;;5035148;28;20472;-61
2022/12/22 04:27:55;;;;;;;26.77;4.83;;;11.80;99.90;;;;;;5027800;28;20508;-61
2022/12/22 04:30:22;;;;;;;22.90;5.43;;;11.90;99.90;;;;;;5031091;28;20487;-62
2022/12/22 04:32:48;;;;;;;21.00;9.30;;;11.80;99.90;;;;;;5035983;28;20480;-62
2022/12/22 04:35:15;;;;;;;16.80;4.87;;;11.80;99.90;;;;;;5035748;28;20541;-61
2022/12/22 04:37:43;;;;;;;22.67;8.37;;;;;;;;;;5035329;28;20870;-61
2022/12/22 04:40:10;;;;;;;16.83;6.70;;;;;;;;;;5032428;28;21326;-61
2022/12/22 04:42:37;;;;;;;21.33;5.57;;;12.00;99.90;;;;;;5031578;28;20483;-61
2022/12/22 04:45:05;;;;;;;13.93;4.50;;;11.90;99.90;;;;;;5035893;28;20476;-61
2022/12/22 04:47:31;;;;;;;19.27;5.83;;;9.80;99.90;;;;;;5036755;28;20875;-61
2022/12/22 04:49:58;;;;;;;20.87;5.10;;;11.90;99.90;;;;;;5027480;28;20495;-61
2022/12/22 04:52:26;;;;;;;19.33;5.50;;;;;;;;;;5031759;28;20480;-61
2022/12/22 04:54:54;;;;;;;21.17;6.97;;;11.90;99.90;;;;;;5033217;28;20888;-61
2022/12/22 04:57:21;;;;;;;14.23;4.90;;;11.80;99.90;;;;;;5026523;28;20925;-61
2022/12/22 04:59:48;;;;;;;24.30;7.37;;;11.90;99.90;;;;;;5035892;28;20488;-61
2022/12/22 05:02:14;;;;;;;27.37;7.50;;;12.00;99.90;;;;;;5031927;28;20489;-61
2022/12/22 05:04:41;;;;;;;33.80;8.77;;;;;;;;;;5032867;28;20613;-61
2022/12/22 05:07:09;;;;;;;19.30;5.90;;;;;;;;;;5019528;28;21118;-61
2022/12/22 05:09:35;;;;;;;27.53;8.77;;;11.80;99.90;;;;;;5029728;28;20487;-61
2022/12/22 05:12:53;;;;;;;15.70;5.40;;;11.80;99.90;;;;;;5025108;28;20553;-61
2022/12/22 05:14:51;;;;;;;30.93;8.63;;;;;;;;;;5026665;28;21373;-61
2022/12/22 05:17:18;;;;;;;28.27;5.57;;;11.80;99.90;;;;;;5026533;28;20503;-62
2022/12/22 05:19:45;;;;;;;34.43;10.33;;;11.70;99.90;;;;;;5017404;28;20902;-62
2022/12/22 05:22:11;;;;;;;17.20;6.20;;;11.70;99.90;;;;;;5012042;28;20520;-61
2022/12/22 05:24:38;;;;;;;23.87;6.67;;;11.70;99.90;;;;;;5014922;28;20476;-61
2022/12/22 05:27:07;;;;;;;23.40;6.10;;;;;;;;;;5013099;28;20518;-62
2022/12/22 05:29:34;;;;;;;15.13;6.70;;;;;;;;;;5023816;28;20989;-62
2022/12/22 05:32:00;;;;;;;40.73;5.50;;;11.60;99.90;;;;;;5013139;28;20536;-62
2022/12/22 05:34:27;;;;;;;23.57;7.23;;;11.50;99.90;;;;;;5014762;28;20485;-62
2022/12/22 05:36:54;;;;;;;19.00;7.10;;;11.50;99.90;;;;;;5014227;28;21004;-62
2022/12/22 05:39:21;;;;;;;19.20;5.70;;;11.50;99.90;;;;;;5022866;28;20484;-61
2022/12/22 05:41:47;;;;;;;35.97;10.53;;;11.50;99.90;;;;;;5032234;28;20514;-61
2022/12/22 05:44:15;;;;;;;24.93;5.93;;;11.50;99.90;;;;;;5030965;28;20773;-62
2022/12/22 05:46:42;;;;;;;35.43;8.17;;;;;;;;;;5022717;28;20822;-61
2022/12/22 05:49:09;;;;;;;24.07;5.23;;;11.60;99.90;;;;;;5033809;28;20553;-62
2022/12/22 05:51:36;;;;;;;34.33;9.77;;;11.50;99.90;;;;;;5031849;28;20492;-62
2022/12/22 05:54:02;;;;;;;13.07;5.87;;;11.40;99.90;;;;;;5034123;28;20531;-62
2022/12/22 05:56:29;;;;;;;25.83;6.83;;;11.30;99.90;;;;;;5034911;28;20476;-62
2022/12/22 05:58:56;;;;;;;17.60;3.67;;;11.40;99.90;;;;;;5034237;28;20484;-62
2022/12/22 06:01:24;;;;;;;16.63;4.47;;;11.50;99.90;;;;;;5033660;28;20480;-62
2022/12/22 06:03:51;;;;;;;23.83;6.60;;;;;;;;;;5034047;28;20534;-61
2022/12/22 06:06:17;;;;;;;20.87;6.77;;;11.40;99.90;;;;;;5035255;28;20546;-62
2022/12/22 06:08:44;;;;;;;27.83;8.93;;;11.50;99.90;;;;;;5033568;28;20488;-62
2022/12/22 06:11:11;;;;;;;15.30;4.10;;;11.40;99.90;;;;;;5031542;28;20496;-62
2022/12/22 06:13:37;;;;;;;22.30;8.30;;;11.30;99.90;;;;;;5030441;28;20905;-62
2022/12/22 06:16:04;;;;;;;31.50;7.83;;;11.20;99.90;;;;;;5030519;28;21128;-61
2022/12/22 06:18:32;;;;;;;26.43;6.43;;;11.40;99.90;;;;;;5024169;28;20763;-62
2022/12/22 06:20:59;;;;;;;26.10;6.83;;;11.50;99.90;;;;;;5017809;28;20984;-62
2022/12/22 06:23:26;;;;;;;19.90;4.20;;;11.60;99.90;;;;;;5031902;28;20984;-61
2022/12/22 06:25:56;;;;;;;23.17;7.33;;;;;;;;;;5039415;28;20472;-61
2022/12/22 06:28:23;;;;;;;28.23;6.60;;;11.50;99.90;;;;;;5041129;28;20542;-62
2022/12/22 06:30:50;;;;;;;31.10;8.13;;;11.50;99.90;;;;;;5037367;28;20551;-61
2022/12/22 06:33:16;;;;;;;18.23;6.50;;;11.70;99.90;;;;;;5039331;28;20526;-61
2022/12/22 06:35:45;;;;;;;28.53;9.50;;;;;;;;;;5039174;28;20487;-62
2022/12/22 06:38:12;;;;;;;23.90;4.90;;;;;;;;;;5039341;28;20479;-61
2022/12/22 06:40:39;;;;;;;31.80;9.83;;;11.70;99.90;;;;;;5036105;28;20541;-61
2022/12/22 06:43:07;;;;;;;22.83;7.70;;;11.60;99.90;;;;;;5038262;28;21019;-62
2022/12/22 06:45:34;;;;;;;31.00;6.40;;;;;;;;;;5037027;28;20832;-61
2022/12/22 06:48:01;;;;;;;18.30;5.20;;;11.70;99.90;;;;;;5038659;28;20557;-61
2022/12/22 06:50:28;;;;;;;18.00;4.97;;;11.70;99.90;;;;;;5035457;28;20577;-62
2022/12/22 06:52:56;;;;;;;24.67;5.37;;;11.80;99.90;;;;;;5036952;28;20486;-61
2022/12/22 06:55:22;;;;;;;22.70;7.23;;;11.60;99.90;;;;;;5037525;28;20663;-61
2022/12/22 06:57:49;;;;;;;26.60;7.83;;;;;;;;;;5037705;28;20479;-61
2022/12/22 07:00:17;;;;;;;19.53;5.00;;;;;;;;;;5036116;28;20836;-62
2022/12/22 07:02:43;;;;;;;35.63;12.23;;;11.70;99.90;;;;;;5036016;28;20476;-62
2022/12/22 07:05:10;;;;;;;33.23;5.93;;;11.70;99.90;;;;;;5035034;28;21504;-62
2022/12/22 07:07:37;;;;;;;45.27;9.20;;;11.70;99.90;;;;;;5037003;28;20820;-62
2022/12/22 07:10:06;;;;;;;24.00;7.43;;;;;;;;;;5037514;28;20479;-62
2022/12/22 07:12:33;;;;;;;21.57;6.40;;;;;;;;;;5035814;28;20830;-62
2022/12/22 07:15:00;;;;;;;38.57;6.27;;;11.70;99.90;;;;;;5023964;28;20497;-62
2022/12/22 07:17:26;;;;;;;30.53;7.90;;;11.50;99.90;;;;;;5016984;28;20481;-61
2022/12/22 07:19:53;;;;;;;24.20;8.57;;;11.60;99.90;;;;;;5015276;28;20477;-61
2022/12/22 07:22:20;;;;;;;30.03;5.97;;;;;;;;;;5016483;28;20531;-61
2022/12/22 07:24:47;;;;;;;40.43;11.10;;;11.40;99.90;;;;;;5017493;28;20566;-62
2022/12/22 07:27:15;;;;;;;26.23;7.03;;;11.50;99.90;;;;;;5017121;28;20530;-62
2022/12/22 07:29:42;;;;;;;44.37;13.27;;;11.50;99.90;;;;;;5016886;28;20527;-62
2022/12/22 07:32:08;;;;;;;27.47;10.07;;;11.50;99.90;;;;;;5015222;28;20477;-62
2022/12/22 07:34:35;;;;;;;25.97;7.20;;;11.50;99.90;;;;;;5024327;28;20997;-62
2022/12/22 07:37:02;;;;;;;20.83;5.77;;;11.40;99.90;;;;;;5024611;28;20487;-62
2022/12/22 07:39:29;;;;;;;21.23;7.07;;;11.50;99.90;;;;;;5028223;28;20483;-62
2022/12/22 07:44:46;;;;;;;55.93;11.50;;;11.40;99.90;;;;;;5005387;28;20476;-62
2022/12/22 07:47:13;;;;;;;46.43;10.67;;;;;;;;;;5033983;28;21087;-63
2022/12/22 07:52:24;;;;;;;33.23;7.93;;;11.40;99.90;;;;;;5028568;28;20593;-63
2022/12/22 07:54:51;;;;;;;34.53;9.73;;;11.30;99.90;;;;;;5036391;28;20484;-61
2022/12/22 07:57:17;;;;;;;38.03;9.23;;;11.30;99.90;;;;;;5036816;28;20934;-62
2022/12/22 07:59:47;;;;;;;49.57;12.20;;;;;;;;;;5016636;28;20487;-62
2022/12/22 08:02:13;;;;;;;42.53;7.57;;;11.40;99.90;;;;;;5016009;28;20872;-62
2022/12/22 08:04:40;;;;;;;32.20;7.90;;;;;;;;;;5024861;28;20561;-62
2022/12/22 08:07:07;;;;;;;30.20;7.37;;;11.50;99.90;;;;;;5035632;28;20477;-61
2022/12/22 08:09:34;;;;;;;46.27;9.87;;;;;;;;;;5036082;28;20530;-62
2022/12/22 08:12:01;;;;;;;32.77;7.97;;;;;;;;;;5036408;28;20489;-62
2022/12/22 08:14:28;;;;;;;34.67;6.20;;;11.40;99.90;;;;;;5038303;28;20541;-62
2022/12/22 08:16:56;;;;;;;34.03;5.80;;;11.40;99.90;;;;;;5036678;28;20492;-61
2022/12/22 08:19:23;;;;;;;33.77;7.17;;;11.30;99.90;;;;;;5038254;28;20487;-62
2022/12/22 08:21:49;;;;;;;37.70;9.57;;;11.40;99.90;;;;;;5037986;28;20488;-61
2022/12/22 08:24:16;;;;;;;36.77;6.00;;;;;;;;;;5037096;28;21059;-61
2022/12/22 08:26:46;;;;;;;51.80;11.30;;;11.40;99.90;;;;;;5035411;28;20508;-61
2022/12/22 08:29:18;;;;;;;35.67;8.30;;;11.50;99.90;;;;;;5035908;28;20483;-61
2022/12/22 08:31:45;;;;;;;42.77;11.97;;;;;;;;;;5035197;28;20815;-61
2022/12/22 08:34:16;;;;;;;21.83;5.90;;;11.50;99.90;;;;;;5032952;28;20560;-61
2022/12/22 08:36:47;;;;;;;39.77;10.50;;;11.40;99.90;;;;;;5022757;28;20493;-61
2022/12/22 08:39:14;;;;;;;26.33;5.50;;;;;;;;;;5019096;28;20521;-61
2022/12/22 08:41:50;;;;;;;42.90;10.87;;;11.40;99.90;;;;;;5018573;28;21075;-60
2022/12/22 08:44:18;;;;;;;18.83;4.00;;;11.50;99.90;;;;;;5032762;28;20476;-61
2022/12/22 08:46:45;;;;;;;30.63;8.63;;;11.60;99.90;;;;;;5033360;28;20488;-61
2022/12/22 08:49:13;;;;;;;20.60;6.53;;;11.70;99.90;;;;;;5035429;28;20916;-61
2022/12/22 08:51:40;;;;;;;36.93;7.90;;;;;;;;;;5030761;28;20565;-62
2022/12/22 08:54:08;;;;;;;35.13;6.50;;;;;;;;;;5035386;28;20993;-61
2022/12/22 08:56:37;;;;;;;23.40;5.07;;;;;;;;;;5033135;28;20832;-61
2022/12/22 08:59:06;;;;;;;32.47;6.57;;;11.60;99.90;;;;;;5035615;28;20526;-61
2022/12/22 09:01:34;;;;;;;33.47;5.97;;;11.60;99.90;;;;;;5020676;28;20585;-61
2022/12/22 09:04:01;;;;;;;30.70;5.37;;;;;;;;;;5014631;28;20492;-61
2022/12/22 09:06:29;;;;;;;30.17;5.60;;;11.50;99.90;;;;;;5015198;28;20492;-61
2022/12/22 09:08:57;;;;;;;22.47;4.87;;;11.60;99.90;;;;;;5018540;28;20834;-61
2022/12/22 09:11:25;;;;;;;18.73;4.63;;;;;;;;;;5030052;28;20512;-61
2022/12/22 09:13:53;;;;;;;26.20;5.83;;;11.50;99.90;;;;;;5034374;28;20489;-61
2022/12/22 09:16:21;;;;;;;26.60;7.50;;;;;;;;;;5034353;28;20878;-61
2022/12/22 09:18:48;;;;;;;28.67;8.47;;;;;;;;;;5035255;28;20974;-61
2022/12/22 09:21:15;;;;;;;27.00;5.23;;;11.60;99.90;;;;;;5032448;28;20472;-62
2022/12/22 09:23:43;;;;;;;32.00;8.50;;;11.60;99.90;;;;;;5034940;28;20972;-62
2022/12/22 09:26:12;;;;;;;36.73;6.10;;;11.70;99.90;;;;;;5031680;28;20954;-60
2022/12/22 09:28:39;;;;;;;25.70;9.70;;;11.70;99.90;;;;;;5032895;28;20488;-61
2022/12/22 09:31:07;;;;;;;23.20;6.10;;;11.70;99.90;;;;;;5015555;28;21059;-60
2022/12/22 09:33:36;;;;;;;28.27;4.90;;;11.80;99.90;;;;;;5037802;28;20488;-61
2022/12/22 09:36:06;;;;;;;29.97;6.80;;;;;;;;;;5049472;28;20486;-61
2022/12/22 09:38:33;;;;;;;30.40;6.30;;;;;;;;;;5033587;28;20537;-60
2022/12/22 09:41:07;;;;;;;20.63;4.00;;;11.80;99.90;;;;;;5033118;28;20476;-61
2022/12/22 09:43:34;;;;;;;35.47;7.00;;;11.80;99.90;;;;;;5034227;28;20488;-61
2022/12/22 09:46:01;;;;;;;24.93;4.83;;;;;;;;;;5032428;28;20487;-61
2022/12/22 09:48:34;;;;;;;8.00;4.07;;;11.80;99.90;;;;;;5042991;28;20478;-61
2022/12/22 09:51:01;;;;;;;18.53;4.57;;;11.80;99.90;;;;;;5009072;28;20480;-60
2022/12/22 09:53:28;;;;;;;21.47;5.80;;;11.80;99.90;;;;;;5017541;28;20567;-60
2022/12/22 09:55:55;;;;;;;18.43;3.80;;;11.80;99.90;;;;;;5017286;28;20477;-61
2022/12/22 09:58:26;;;;;;;14.77;4.53;;;11.80;99.90;;;;;;5018306;28;21284;-62
2022/12/22 10:01:01;;;;;;;20.97;4.57;;;11.80;99.90;;;;;;5016472;28;20481;-61
2022/12/22 10:03:32;;;;;;;17.30;4.30;;;11.90;99.90;;;;;;5030997;28;21218;-61
2022/12/22 10:06:09;;;;;;;15.50;3.97;;;12.00;99.90;;;;;;5019598;28;20477;-61
2022/12/22 10:08:39;;;;;;;25.07;5.37;;;11.90;99.90;;;;;;5026773;28;20487;-62
2022/12/22 10:11:07;;;;;;;17.20;4.50;;;11.80;99.90;;;;;;5029339;28;20478;-61
2022/12/22 10:13:35;;;;;;;21.17;4.90;;;;;;;;;;5036024;28;20525;-62
2022/12/22 10:16:15;;;;;;;19.20;4.67;;;13.20;99.90;;;;;;5019006;28;20489;-60
2022/12/22 10:18:55;;;;;;;31.20;8.17;;;12.00;99.90;;;;;;5026145;28;20488;-61
2022/12/22 10:21:23;;;;;;;17.33;5.07;;;11.90;99.90;;;;;;5027290;28;20492;-61
2022/12/22 10:23:50;;;;;;;37.80;7.30;;;;;;;;;;5027552;28;20732;-61
2022/12/22 10:26:21;;;;;;;20.40;5.33;;;11.90;99.90;;;;;;5032308;28;20517;-61
2022/12/22 10:28:53;;;;;;;37.70;9.30;;;12.00;99.90;;;;;;5017278;28;20481;-61
2022/12/22 10:31:22;;;;;;;25.50;5.40;;;11.90;99.90;;;;;;5009515;28;20504;-62
2022/12/22 10:33:50;;;;;;;36.07;10.13;;;;;;;;;;5017411;28;21076;-61
2022/12/22 10:36:23;;;;;;;20.90;5.97;;;12.10;99.90;;;;;;5013595;28;20571;-62
2022/12/22 10:38:54;;;;;;;41.87;10.43;;;;;;;;;;5030122;28;20483;-62
2022/12/22 10:41:24;;;;;;;20.40;5.10;;;12.20;99.90;;;;;;5033007;28;20484;-62
2022/12/22 10:43:55;;;;;;;16.53;4.50;;;12.30;99.90;;;;;;5035055;28;20519;-62
2022/12/22 10:46:32;;;;;;;22.43;6.07;;;12.40;99.90;;;;;;5033624;28;20538;-61
2022/12/22 10:49:14;;;;;;;28.67;5.40;;;12.40;99.90;;;;;;5035441;28;20491;-61
2022/12/22 10:51:43;;;;;;;37.23;10.43;;;12.40;99.90;;;;;;5033180;28;20582;-61
2022/12/22 10:54:24;;;;;;;20.13;5.70;;;12.50;99.90;;;;;;5034865;28;20476;-61
2022/12/22 10:57:02;;;;;;;22.73;6.10;;;12.40;99.90;;;;;;5038097;28;20488;-61
2022/12/22 10:59:31;;;;;;;20.97;5.70;;;12.40;99.90;;;;;;5037926;28;20529;-61
2022/12/22 11:02:31;;;;;;;16.70;5.10;;;12.40;99.90;;;;;;5037092;28;21042;-61
2022/12/22 11:05:03;;;;;;;21.03;4.90;;;;;;;;;;5036963;28;20530;-62
2022/12/22 11:07:33;;;;;;;30.40;6.00;;;12.40;99.90;;;;;;5038988;28;20488;-61
2022/12/22 11:10:00;;;;;;;22.07;5.33;;;;;;;;;;5035575;28;20468;-62
2022/12/22 11:12:37;;;;;;;16.00;4.20;;;12.40;99.90;;;;;;5033427;28;20486;-61
2022/12/22 11:15:14;;;;;;;22.80;4.53;;;12.40;99.90;;;;;;5032371;28;20483;-61
2022/12/22 11:17:50;;;;;;;36.80;9.87;;;12.50;99.90;;;;;;5030959;28;20554;-61
2022/12/22 11:20:48;;;;;;;24.23;5.63;;;12.50;99.90;;;;;;5019418;28;20515;-61
2022/12/22 11:23:20;;;;;;;32.87;6.87;;;;;;;;;;5018859;28;20865;-62
2022/12/22 11:25:55;;;;;;;27.13;7.47;;;;;;;;;;5037232;28;20484;-61
2022/12/22 11:28:44;;;;;;;14.23;4.30;;;;;;;;;;5018297;28;20583;-61
2022/12/22 11:31:24;;;;;;;29.03;5.93;;;;;;;;;;5022393;28;20845;-61
2022/12/22 11:34:04;;;;;;;17.90;5.40;;;12.50;99.90;;;;;;5036744;28;20545;-61
2022/12/22 11:36:45;;;;;;;23.77;4.37;;;12.60;99.90;;;;;;5034425;28;20533;-62
2022/12/22 11:39:14;;;;;;;24.83;6.83;;;;;;;;;;5028726;28;20506;-62
2022/12/22 11:42:00;;;;;;;32.07;7.43;;;12.60;99.90;;;;;;5027396;28;20489;-61
2022/12/22 11:44:46;;;;;;;22.43;5.10;;;12.60;99.90;;;;;;5039133;28;20541;-62
2022/12/22 11:47:17;;;;;;;18.50;4.73;;;;;;;;;;5031353;28;20488;-62
2022/12/22 11:50:01;;;;;;;30.10;7.83;;;12.50;99.90;;;;;;5025055;28;20741;-61
2022/12/22 11:52:35;;;;;;;24.97;4.50;;;;;;;;;;5027515;28;20555;-62
2022/12/22 11:55:11;;;;;;;10.33;4.10;;;;;;;;;;5031909;28;20473;-61
2022/12/22 11:57:52;;;;;;;34.13;7.87;;;12.40;99.90;;;;;;5032490;28;20967;-61
2022/12/22 12:00:19;;;;;;;26.70;6.70;;;;;;;;;;5025173;28;20464;-61
2022/12/22 12:03:11;;;;;;;39.33;8.50;;;12.30;99.90;;;;;;5036547;28;20481;-61
2022/12/22 12:05:47;;;;;;;34.07;8.70;;;;;;;;;;4971904;28;20483;-62
2022/12/22 12:08:25;;;;;;;40.00;6.87;;;12.40;99.90;;;;;;5008563;28;20488;-61
2022/12/22 12:10:56;;;;;;;20.77;6.10;;;12.50;99.90;;;;;;5022159;28;20500;-62
2022/12/22 12:13:30;;;;;;;19.07;5.10;;;;;;;;;;5028923;28;20492;-61
2022/12/22 12:16:08;;;;;;;14.10;3.20;;;12.60;99.90;;;;;;5035797;28;20563;-61
2022/12/22 12:18:43;;;;;;;29.70;7.80;;;;;;;;;;5024834;28;20821;-61
2022/12/22 12:21:26;;;;;;;18.33;4.87;;;12.60;99.90;;;;;;5015829;28;20845;-61
2022/12/22 12:24:04;;;;;;;18.07;4.80;;;;;;;;;;5024397;28;20484;-61
2022/12/22 12:26:35;;;;;;;23.50;5.77;;;12.50;99.90;;;;;;5028965;28;20893;-61
2022/12/22 12:29:15;;;;;;;16.63;3.63;;;12.40;99.90;;;;;;5015656;28;20477;-62
2022/12/22 12:31:48;;;;;;;35.50;9.90;;;12.50;99.90;;;;;;5015141;28;20468;-60
2022/12/22 12:34:18;;;;;;;22.53;4.87;;;12.50;99.90;;;;;;5016545;28;20485;-61
2022/12/22 12:36:51;;;;;;;50.10;11.13;;;12.40;99.90;;;;;;5017598;28;20485;-61
2022/12/22 12:39:23;;;;;;;22.17;5.43;;;12.50;99.90;;;;;;5013384;28;20520;-61
2022/12/22 12:41:54;;;;;;;28.77;6.60;;;;;;;;;;5028363;28;20485;-61
2022/12/22 12:44:23;;;;;;;26.53;6.50;;;12.50;99.90;;;;;;5035689;28;20481;-61
2022/12/22 12:47:06;;;;;;;26.03;4.40;;;12.50;99.90;;;;;;5036224;28;20480;-61
2022/12/22 12:50:15;;;;;;;14.97;4.03;;;12.60;99.90;;;;;;5038850;28;20480;-60
2022/12/22 12:53:14;;;;;;;37.07;10.40;;;12.50;99.90;;;;;;5002753;28;20520;-61
2022/12/22 12:56:15;;;;;;;29.80;7.50;;;12.30;99.90;;;;;;5020167;28;21189;-61
2022/12/22 12:58:50;;;;;;;39.23;10.00;;;12.30;99.90;;;;;;4958459;28;21019;-61
2022/12/22 13:01:44;;;;;;;30.47;7.00;;;;;;;;;;4969900;28;20752;-61
2022/12/22 13:04:11;;;;;;;34.17;6.57;;;12.40;99.90;;;;;;4972101;28;20512;-61
2022/12/22 13:06:52;;;;;;;27.07;7.70;;;;;;;;;;5016309;28;20477;-61
2022/12/22 13:09:21;;;;;;;29.60;8.07;;;;;;;;;;5017680;28;20480;-60
2022/12/22 13:11:49;;;;;;;37.00;9.03;;;;;;;;;;5035027;28;20999;-60
2022/12/22 13:14:57;;;;;;;27.17;5.53;;;12.30;99.90;;;;;;5035148;28;20575;-61
2022/12/22 13:17:40;;;;;;;13.57;4.83;;;12.20;99.90;;;;;;4965393;28;20478;-61
2022/12/22 13:20:12;;;;;;;22.50;7.87;;;12.10;99.90;;;;;;5012068;28;20575;-60
2022/12/22 13:22:40;;;;;;;26.47;8.63;;;12.10;99.90;;;;;;5010024;28;20765;-61
2022/12/22 13:25:15;;;;;;;12.30;4.73;;;12.10;99.90;;;;;;5016385;28;20546;-62
2022/12/22 13:27:41;;;;;;;15.63;4.90;;;12.10;99.90;;;;;;5013799;28;20475;-62
2022/12/22 13:30:14;;;;;;;28.03;8.70;;;12.00;99.90;;;;;;5029189;28;20496;-62
2022/12/22 13:32:41;;;;;;;26.37;8.43;;;;;;;;;;5016131;28;20465;-62
2022/12/22 13:35:16;;;;;;;19.33;5.63;;;12.00;99.90;;;;;;5033351;28;20526;-62
2022/12/22 13:37:46;;;;;;;26.70;8.43;;;;;;;;;;5004085;28;20477;-61
2022/12/22 13:40:18;;;;;;;35.83;7.13;;;12.00;99.90;;;;;;5024210;28;20480;-62
2022/12/22 13:42:48;;;;;;;32.73;10.73;;;12.00;99.90;;;;;;5026989;28;20526;-62
2022/12/22 13:45:20;;;;;;;22.13;6.10;;;12.00;99.90;;;;;;5034256;28;21025;-61
2022/12/22 13:47:48;;;;;;;33.70;10.57;;;12.00;99.90;;;;;;5024621;28;20488;-62
2022/12/22 13:50:20;;;;;;;33.70;9.30;;;12.00;99.90;;;;;;5018100;28;21789;-61
2022/12/22 13:52:47;;;;;;;37.00;10.93;;;12.00;99.90;;;;;;5029740;28;20525;-62
2022/12/22 13:55:18;;;;;;;51.70;11.13;;;12.00;99.90;;;;;;5020939;28;20473;-61
2022/12/22 13:57:46;;;;;;;41.97;10.07;;;12.10;99.90;;;;;;5013778;28;20903;-62
2022/12/22 14:00:21;;;;;;;48.10;11.87;;;12.10;99.90;;;;;;5030068;28;20563;-62
2022/12/22 14:02:49;;;;;;;54.60;13.67;;;12.10;99.90;;;;;;5013220;28;20547;-62
2022/12/22 14:05:16;;;;;;;52.97;9.70;;;12.10;99.90;;;;;;5013923;28;20576;-61
2022/12/22 14:07:58;;;;;;;43.03;10.50;;;12.20;99.90;;;;;;5008801;28;20997;-62
2022/12/22 14:10:33;;;;;;;72.33;15.37;;;12.20;99.90;;;;;;5011444;28;20515;-62
2022/12/22 14:13:05;;;;;;;34.80;9.43;;;12.20;99.90;;;;;;5020675;28;20538;-62
2022/12/22 14:15:32;;;;;;;38.50;11.57;;;12.20;99.90;;;;;;5012478;28;20477;-62
2022/12/22 14:18:00;;;;;;;33.67;9.03;;;12.30;99.90;;;;;;5007302;28;20476;-62
2022/12/22 14:20:29;;;;;;;31.47;10.20;;;12.20;99.90;;;;;;5022557;28;20480;-62
2022/12/22 14:22:59;;;;;;;46.27;12.30;;;12.20;99.90;;;;;;5023676;28;20468;-62
2022/12/22 14:25:31;;;;;;;33.57;8.80;;;12.20;99.90;;;;;;5010849;28;20978;-62
2022/12/22 14:27:59;;;;;;;26.53;9.90;;;12.20;99.90;;;;;;5014447;28;20473;-61
2022/12/22 14:30:30;;;;;;;50.33;12.13;;;12.20;99.90;;;;;;5009127;28;20897;-62
2022/12/22 14:32:57;;;;;;;36.60;10.33;;;12.30;99.90;;;;;;5021400;28;20503;-62
2022/12/22 14:35:28;;;;;;;46.17;8.73;;;12.30;99.90;;;;;;5013493;28;20483;-62
2022/12/22 14:38:16;;;;;;;36.10;8.40;;;12.20;99.90;;;;;;5017691;28;20526;-62
2022/12/22 14:40:43;;;;;;;61.00;15.43;;;12.10;99.90;;;;;;5007882;28;20538;-61
2022/12/22 14:43:24;;;;;;;37.53;9.63;;;12.10;99.90;;;;;;5010333;28;20481;-63
2022/12/22 14:46:02;;;;;;;42.53;9.53;;;12.20;99.90;;;;;;5018595;28;20546;-62
2022/12/22 14:48:32;;;;;;;40.73;11.10;;;12.10;99.90;;;;;;5010391;28;20483;-62
2022/12/22 14:51:00;;;;;;;38.27;11.17;;;12.20;99.90;;;;;;5013311;28;20477;-62
2022/12/22 14:53:36;;;;;;;49.60;11.30;;;12.20;99.90;;;;;;5013363;28;20531;-61
2022/12/22 14:56:02;;;;;;;45.80;8.57;;;12.10;99.90;;;;;;5013592;28;20771;-62
2022/12/22 14:58:32;;;;;;;51.10;12.33;;;12.00;99.90;;;;;;5018200;28;20472;-63
2022/12/22 15:01:16;;;;;;;40.33;11.47;;;12.10;99.90;;;;;;5014332;28;20504;-61
2022/12/22 15:03:44;;;;;;;66.23;15.40;;;12.10;99.90;;;;;;5030155;28;20916;-62
2022/12/22 15:06:33;;;;;;;28.60;8.83;;;12.10;99.90;;;;;;5013186;28;20535;-62
2022/12/22 15:09:26;;;;;;;24.63;10.37;;;12.10;99.90;;;;;;5014381;28;20476;-61
2022/12/22 15:11:57;;;;;;;43.20;9.63;;;12.00;99.90;;;;;;5011729;28;21466;-62
2022/12/22 15:14:25;;;;;;;39.00;12.57;;;11.60;99.90;;;;;;5015014;28;21352;-62
2022/12/22 15:16:58;;;;;;;39.50;8.90;;;12.00;99.90;;;;;;5013783;28;21013;-62
2022/12/22 15:19:30;;;;;;;48.97;12.67;;;12.00;99.90;;;;;;5018847;28;20481;-63
2022/12/22 15:21:56;;;;;;;35.27;9.47;;;12.00;99.90;;;;;;5004099;28;20488;-62
2022/12/22 15:24:23;;;;;;;39.33;11.53;;;11.90;99.90;;;;;;5015638;28;20489;-62
2022/12/22 15:26:50;;;;;;;28.07;9.23;;;11.90;99.90;;;;;;5024337;28;20535;-62
2022/12/22 15:29:17;;;;;;;34.27;9.90;;;12.00;99.90;;;;;;5021546;28;20535;-62
2022/12/22 15:31:44;;;;;;;54.57;15.57;;;11.80;99.90;;;;;;5022127;28;20474;-62
2022/12/22 15:34:16;;;;;;;33.63;11.10;;;11.90;99.90;;;;;;5024122;28;20480;-62
2022/12/22 15:36:43;;;;;;;53.73;15.10;;;11.90;99.90;;;;;;5011846;28;20481;-62
2022/12/22 15:39:15;;;;;;;55.77;10.17;;;11.90;99.90;;;;;;5013701;28;20485;-62
2022/12/22 15:41:42;;;;;;;51.40;15.20;;;11.90;99.90;;;;;;5014767;28;20614;-62
2022/12/22 15:44:09;;;;;;;32.30;10.60;;;12.00;99.90;;;;;;5017478;28;20903;-61
2022/12/22 15:46:36;;;;;;;49.50;14.47;;;12.00;99.90;;;;;;5021187;28;20482;-62
2022/12/22 15:49:03;;;;;;;37.63;10.30;;;11.90;99.90;;;;;;5010945;28;20887;-62
2022/12/22 15:51:32;;;;;;;40.40;10.53;;;12.00;99.90;;;;;;5014753;28;20535;-61
2022/12/22 15:53:59;;;;;;;31.80;6.40;;;11.90;99.90;;;;;;5013019;28;20539;-62
2022/12/22 15:56:28;;;;;;;24.37;10.13;;;11.90;99.90;;;;;;5016970;28;20551;-61
2022/12/22 15:58:55;;;;;;;32.33;7.77;;;11.90;99.90;;;;;;5018812;28;20480;-61
2022/12/22 16:01:22;;;;;;;33.87;9.83;;;11.90;99.90;;;;;;5011179;28;20507;-62
2022/12/22 16:03:48;;;;;;;45.07;13.40;;;11.90;99.90;;;;;;5016232;28;20730;-61
2022/12/22 16:06:17;;;;;;;44.93;11.90;;;12.00;99.90;;;;;;5007768;28;20733;-62
2022/12/22 16:08:49;;;;;;;71.13;20.60;;;11.90;99.90;;;;;;5020741;28;20957;-61
2022/12/22 16:11:17;;;;;;;32.70;11.33;;;11.80;99.90;;;;;;5012825;28;20485;-61
2022/12/22 16:13:44;;;;;;;63.23;15.70;;;11.90;99.90;;;;;;5009402;28;20517;-61
2022/12/22 16:16:10;;;;;;;38.97;11.37;;;11.90;99.90;;;;;;5010943;28;20771;-63
2022/12/22 16:18:37;;;;;;;39.43;12.80;;;11.90;99.90;;;;;;5009803;28;20493;-62
2022/12/22 16:21:07;;;;;;;32.67;10.60;;;11.90;99.90;;;;;;5017369;28;20481;-62
2022/12/22 16:23:35;;;;;;;44.60;13.80;;;12.10;99.90;;;;;;5010437;28;20981;-61
2022/12/22 16:26:04;;;;;;;38.23;12.03;;;11.90;99.90;;;;;;5008562;28;20857;-62
2022/12/22 16:28:31;;;;;;;25.90;7.50;;;11.90;99.90;;;;;;5017104;28;20504;-62
2022/12/22 16:30:59;;;;;;;36.63;11.20;;;11.90;99.90;;;;;;5017915;28;20480;-61
2022/12/22 16:33:26;;;;;;;39.40;12.03;;;11.80;99.90;;;;;;5026888;28;20484;-62
2022/12/22 16:35:53;;;;;;;31.90;11.10;;;11.80;99.90;;;;;;5010827;28;20485;-62
2022/12/22 16:38:20;;;;;;;46.03;11.50;;;11.80;99.90;;;;;;5015998;28;20477;-62
2022/12/22 16:40:49;;;;;;;57.07;13.63;;;11.80;99.90;;;;;;5018431;28;20480;-62
2022/12/22 16:43:22;;;;;;;54.37;18.50;;;11.70;99.90;;;;;;5017108;28;20489;-62
2022/12/22 16:45:49;;;;;;;41.40;12.90;;;11.80;99.90;;;;;;5013496;28;20489;-62
2022/12/22 16:48:21;;;;;;;32.73;8.80;;;11.80;99.90;;;;;;5012686;28;20477;-61
2022/12/22 16:50:48;;;;;;;38.93;13.30;;;11.90;99.90;;;;;;5012981;28;20543;-62
2022/12/22 16:53:15;;;;;;;27.40;7.20;;;11.90;99.90;;;;;;5013199;28;21288;-62